sensor_id;sensor_type;location;lat;lon;timestamp;P1;P2;P0
21358;PMS7003;13506;50.852;20.632;2024-03-02T00:01:19;39.20;31.60;17.60
21358;PMS7003;13506;50.852;20.632;2024-03-02T00:03:48;29.60;25.40;14.80
21358;PMS7003;13506;50.852;20.632;2024-03-02T00:06:18;29.00;24.40;14.00
21358;PMS7003;13506;50.852;20.632;2024-03-02T00:08:48;34.20;26.40;15.00
21358;PMS7003;13506;50.852;20.632;2024-03-02T00:11:16;31.20;29.40;17.00
21358;PMS7003;13506;50.852;20.632;2024-03-02T00:13:45;31.60;28.00;15.40
21358;PMS7003;13506;50.852;20.632;2024-03-02T00:16:13;30.60;26.40;16.80
21358;PMS7003;13506;50.852;20.632;2024-03-02T00:18:42;34.60;28.20;18.20
21358;PMS7003;13506;50.852;20.632;2024-03-02T00:21:10;39.60;32.00;18.80
21358;PMS7003;13506;50.852;20.632;2024-03-02T00:23:40;35.80;33.00;18.20
21358;PMS7003;13506;50.852;20.632;2024-03-02T00:26:09;26.20;25.20;14.00
21358;PMS7003;13506;50.852;20.632;2024-03-02T00:28:39;27.80;27.00;16.80
21358;PMS7003;13506;50.852;20.632;2024-03-02T00:31:10;32.20;27.60;15.00
21358;PMS7003;13506;50.852;20.632;2024-03-02T00:33:41;32.80;28.00;17.00
21358;PMS7003;13506;50.852;20.632;2024-03-02T00:36:10;36.20;33.00;20.00
21358;PMS7003;13506;50.852;20.632;2024-03-02T00:38:44;37.00;35.20;18.40
21358;PMS7003;13506;50.852;20.632;2024-03-02T00:41:15;29.60;25.20;16.00
21358;PMS7003;13506;50.852;20.632;2024-03-02T00:43:47;27.20;24.80;12.60
21358;PMS7003;13506;50.852;20.632;2024-03-02T00:46:24;37.40;31.60;17.80
21358;PMS7003;13506;50.852;20.632;2024-03-02T00:48:56;36.80;32.20;17.00
21358;PMS7003;13506;50.852;20.632;2024-03-02T00:51:26;33.00;26.20;14.20
21358;PMS7003;13506;50.852;20.632;2024-03-02T00:53:58;34.00;28.40;15.00
21358;PMS7003;13506;50.852;20.632;2024-03-02T00:56:29;33.00;27.40;15.40
21358;PMS7003;13506;50.852;20.632;2024-03-02T00:58:59;35.60;29.00;17.80
21358;PMS7003;13506;50.852;20.632;2024-03-02T01:01:27;33.00;27.80;14.20
21358;PMS7003;13506;50.852;20.632;2024-03-02T01:03:56;30.40;22.60;13.80
21358;PMS7003;13506;50.852;20.632;2024-03-02T01:06:24;31.80;25.40;14.40
21358;PMS7003;13506;50.852;20.632;2024-03-02T01:08:52;32.60;28.20;15.20
21358;PMS7003;13506;50.852;20.632;2024-03-02T01:11:22;29.60;26.80;15.60
21358;PMS7003;13506;50.852;20.632;2024-03-02T01:13:51;33.00;28.00;13.60
21358;PMS7003;13506;50.852;20.632;2024-03-02T01:16:19;36.80;29.80;15.40
21358;PMS7003;13506;50.852;20.632;2024-03-02T01:18:51;38.40;32.20;16.00
21358;PMS7003;13506;50.852;20.632;2024-03-02T01:21:20;26.60;24.00;14.40
21358;PMS7003;13506;50.852;20.632;2024-03-02T01:23:48;38.40;27.80;16.40
21358;PMS7003;13506;50.852;20.632;2024-03-02T01:26:16;32.80;29.20;16.60
21358;PMS7003;13506;50.852;20.632;2024-03-02T01:28:46;34.80;29.40;19.40
21358;PMS7003;13506;50.852;20.632;2024-03-02T01:31:16;25.20;23.00;14.80
21358;PMS7003;13506;50.852;20.632;2024-03-02T01:33:44;36.60;28.00;13.40
21358;PMS7003;13506;50.852;20.632;2024-03-02T01:36:12;28.60;26.00;14.00
21358;PMS7003;13506;50.852;20.632;2024-03-02T01:38:40;33.80;25.80;15.80
21358;PMS7003;13506;50.852;20.632;2024-03-02T01:41:08;23.20;22.20;13.00
21358;PMS7003;13506;50.852;20.632;2024-03-02T01:43:37;26.80;24.40;15.20
21358;PMS7003;13506;50.852;20.632;2024-03-02T01:46:08;33.80;30.80;20.00
21358;PMS7003;13506;50.852;20.632;2024-03-02T01:48:36;28.40;24.00;14.00
21358;PMS7003;13506;50.852;20.632;2024-03-02T01:51:05;34.60;25.60;14.20
21358;PMS7003;13506;50.852;20.632;2024-03-02T01:53:34;40.00;32.00;18.40
21358;PMS7003;13506;50.852;20.632;2024-03-02T01:56:02;30.20;26.20;14.20
21358;PMS7003;13506;50.852;20.632;2024-03-02T01:58:31;34.80;32.60;20.80
21358;PMS7003;13506;50.852;20.632;2024-03-02T02:00:59;34.60;26.80;13.20
21358;PMS7003;13506;50.852;20.632;2024-03-02T02:03:30;32.00;28.60;17.80
21358;PMS7003;13506;50.852;20.632;2024-03-02T02:05:58;32.40;26.20;15.00
21358;PMS7003;13506;50.852;20.632;2024-03-02T02:08:27;29.60;24.20;13.60
21358;PMS7003;13506;50.852;20.632;2024-03-02T02:10:55;37.00;29.80;16.00
21358;PMS7003;13506;50.852;20.632;2024-03-02T02:13:23;32.00;27.60;17.00
21358;PMS7003;13506;50.852;20.632;2024-03-02T02:15:51;27.40;25.00;16.00
21358;PMS7003;13506;50.852;20.632;2024-03-02T02:18:20;38.40;34.40;17.40
21358;PMS7003;13506;50.852;20.632;2024-03-02T02:20:50;31.40;29.80;18.40
21358;PMS7003;13506;50.852;20.632;2024-03-02T02:23:20;33.40;30.60;18.00
21358;PMS7003;13506;50.852;20.632;2024-03-02T02:25:48;31.40;28.80;16.00
21358;PMS7003;13506;50.852;20.632;2024-03-02T02:28:17;34.00;30.00;15.80
21358;PMS7003;13506;50.852;20.632;2024-03-02T02:30:45;34.00;27.60;16.80
21358;PMS7003;13506;50.852;20.632;2024-03-02T02:33:14;26.40;20.00;12.80
21358;PMS7003;13506;50.852;20.632;2024-03-02T02:35:41;30.60;27.80;15.00
21358;PMS7003;13506;50.852;20.632;2024-03-02T02:38:09;37.00;28.00;16.40
21358;PMS7003;13506;50.852;20.632;2024-03-02T02:40:39;34.40;30.20;18.20
21358;PMS7003;13506;50.852;20.632;2024-03-02T02:43:07;36.00;30.00;18.20
21358;PMS7003;13506;50.852;20.632;2024-03-02T02:45:35;25.80;22.00;14.40
21358;PMS7003;13506;50.852;20.632;2024-03-02T02:48:04;41.00;35.40;18.20
21358;PMS7003;13506;50.852;20.632;2024-03-02T02:50:33;39.80;35.20;16.60
21358;PMS7003;13506;50.852;20.632;2024-03-02T02:53:01;31.80;28.60;18.80
21358;PMS7003;13506;50.852;20.632;2024-03-02T02:55:29;32.20;31.60;17.80
21358;PMS7003;13506;50.852;20.632;2024-03-02T02:57:59;29.60;26.80;17.60
21358;PMS7003;13506;50.852;20.632;2024-03-02T03:00:27;39.40;32.00;19.00
21358;PMS7003;13506;50.852;20.632;2024-03-02T03:02:56;44.40;38.60;21.80
21358;PMS7003;13506;50.852;20.632;2024-03-02T03:05:25;44.40;33.80;17.20
21358;PMS7003;13506;50.852;20.632;2024-03-02T03:07:53;35.20;29.00;15.60
21358;PMS7003;13506;50.852;20.632;2024-03-02T03:10:21;34.00;28.80;15.80
21358;PMS7003;13506;50.852;20.632;2024-03-02T03:12:52;44.20;33.20;18.40
21358;PMS7003;13506;50.852;20.632;2024-03-02T03:15:23;32.80;29.20;16.60
21358;PMS7003;13506;50.852;20.632;2024-03-02T03:17:51;27.80;24.20;14.00
21358;PMS7003;13506;50.852;20.632;2024-03-02T03:20:20;28.60;26.20;16.00
21358;PMS7003;13506;50.852;20.632;2024-03-02T03:22:50;28.00;25.40;16.00
21358;PMS7003;13506;50.852;20.632;2024-03-02T03:25:18;31.00;25.40;13.00
21358;PMS7003;13506;50.852;20.632;2024-03-02T03:27:46;33.40;25.60;14.20
21358;PMS7003;13506;50.852;20.632;2024-03-02T03:30:15;29.40;23.40;15.60
21358;PMS7003;13506;50.852;20.632;2024-03-02T03:32:44;28.40;23.80;12.80
21358;PMS7003;13506;50.852;20.632;2024-03-02T03:35:13;30.80;26.20;14.60
21358;PMS7003;13506;50.852;20.632;2024-03-02T03:37:42;36.00;23.40;14.40
21358;PMS7003;13506;50.852;20.632;2024-03-02T03:40:10;37.40;25.00;12.20
21358;PMS7003;13506;50.852;20.632;2024-03-02T03:42:40;33.00;28.00;15.60
21358;PMS7003;13506;50.852;20.632;2024-03-02T03:45:08;25.80;24.20;13.20
21358;PMS7003;13506;50.852;20.632;2024-03-02T03:47:37;30.80;26.20;14.20
21358;PMS7003;13506;50.852;20.632;2024-03-02T03:53:28;28.00;22.40;11.80
21358;PMS7003;13506;50.852;20.632;2024-03-02T03:55:56;34.40;29.20;16.00
21358;PMS7003;13506;50.852;20.632;2024-03-02T03:58:24;26.20;23.00;14.60
21358;PMS7003;13506;50.852;20.632;2024-03-02T04:00:52;28.40;26.60;13.40
21358;PMS7003;13506;50.852;20.632;2024-03-02T04:03:20;38.60;30.00;15.80
21358;PMS7003;13506;50.852;20.632;2024-03-02T04:05:49;33.60;27.40;14.80
21358;PMS7003;13506;50.852;20.632;2024-03-02T04:08:19;25.40;22.80;11.60
21358;PMS7003;13506;50.852;20.632;2024-03-02T04:10:47;26.20;22.60;13.00
21358;PMS7003;13506;50.852;20.632;2024-03-02T04:13:15;33.80;31.40;16.00
21358;PMS7003;13506;50.852;20.632;2024-03-02T04:15:44;34.80;27.00;14.80
21358;PMS7003;13506;50.852;20.632;2024-03-02T04:18:12;33.00;29.80;15.80
21358;PMS7003;13506;50.852;20.632;2024-03-02T04:20:40;32.20;28.00;16.20
21358;PMS7003;13506;50.852;20.632;2024-03-02T04:23:09;31.80;27.80;15.00
21358;PMS7003;13506;50.852;20.632;2024-03-02T04:25:38;33.60;30.60;17.20
21358;PMS7003;13506;50.852;20.632;2024-03-02T04:28:07;42.60;38.80;21.80
21358;PMS7003;13506;50.852;20.632;2024-03-02T04:30:35;37.40;34.40;21.00
21358;PMS7003;13506;50.852;20.632;2024-03-02T04:33:04;45.40;33.20;19.80
21358;PMS7003;13506;50.852;20.632;2024-03-02T04:35:35;33.20;30.60;16.00
21358;PMS7003;13506;50.852;20.632;2024-03-02T04:38:03;33.00;29.20;18.20
21358;PMS7003;13506;50.852;20.632;2024-03-02T04:40:32;33.80;31.20;16.40
21358;PMS7003;13506;50.852;20.632;2024-03-02T04:43:01;29.40;26.40;16.20
21358;PMS7003;13506;50.852;20.632;2024-03-02T04:45:30;35.20;29.60;19.80
21358;PMS7003;13506;50.852;20.632;2024-03-02T04:47:58;32.80;27.80;17.60
21358;PMS7003;13506;50.852;20.632;2024-03-02T04:50:27;34.00;31.60;19.60
21358;PMS7003;13506;50.852;20.632;2024-03-02T04:52:54;39.40;36.60;21.80
21358;PMS7003;13506;50.852;20.632;2024-03-02T04:55:23;35.00;33.00;19.80
21358;PMS7003;13506;50.852;20.632;2024-03-02T04:58:23;37.60;34.20;20.80
21358;PMS7003;13506;50.852;20.632;2024-03-02T05:00:51;31.00;28.80;16.40
21358;PMS7003;13506;50.852;20.632;2024-03-02T05:03:19;34.60;31.20;17.60
21358;PMS7003;13506;50.852;20.632;2024-03-02T05:05:48;35.40;33.60;22.20
21358;PMS7003;13506;50.852;20.632;2024-03-02T05:08:15;39.40;34.60;19.80
21358;PMS7003;13506;50.852;20.632;2024-03-02T05:10:44;37.20;30.80;18.60
21358;PMS7003;13506;50.852;20.632;2024-03-02T05:13:12;37.00;32.80;20.60
21358;PMS7003;13506;50.852;20.632;2024-03-02T05:15:42;44.60;36.40;21.40
21358;PMS7003;13506;50.852;20.632;2024-03-02T05:18:10;39.40;36.60;21.00
21358;PMS7003;13506;50.852;20.632;2024-03-02T05:20:38;36.20;33.40;18.80
21358;PMS7003;13506;50.852;20.632;2024-03-02T05:23:06;34.00;28.60;17.00
21358;PMS7003;13506;50.852;20.632;2024-03-02T05:25:35;38.40;33.00;20.20
21358;PMS7003;13506;50.852;20.632;2024-03-02T05:28:03;47.80;38.60;20.00
21358;PMS7003;13506;50.852;20.632;2024-03-02T05:30:32;35.80;33.40;18.40
21358;PMS7003;13506;50.852;20.632;2024-03-02T05:33:01;41.00;33.40;21.40
21358;PMS7003;13506;50.852;20.632;2024-03-02T05:35:30;40.80;30.20;17.20
21358;PMS7003;13506;50.852;20.632;2024-03-02T05:37:58;35.60;33.20;17.80
21358;PMS7003;13506;50.852;20.632;2024-03-02T05:40:26;31.80;29.20;17.80
21358;PMS7003;13506;50.852;20.632;2024-03-02T05:42:54;31.80;29.00;17.00
21358;PMS7003;13506;50.852;20.632;2024-03-02T05:45:23;41.20;33.60;21.00
21358;PMS7003;13506;50.852;20.632;2024-03-02T05:47:51;41.80;28.20;16.60
21358;PMS7003;13506;50.852;20.632;2024-03-02T05:50:20;35.40;30.40;19.00
21358;PMS7003;13506;50.852;20.632;2024-03-02T05:52:48;35.40;31.20;19.40
21358;PMS7003;13506;50.852;20.632;2024-03-02T05:55:17;44.80;37.60;23.40
21358;PMS7003;13506;50.852;20.632;2024-03-02T05:57:45;36.40;30.80;16.60
21358;PMS7003;13506;50.852;20.632;2024-03-02T06:00:25;31.60;28.80;18.60
21358;PMS7003;13506;50.852;20.632;2024-03-02T06:02:53;33.40;26.80;14.60
21358;PMS7003;13506;50.852;20.632;2024-03-02T06:05:24;43.20;33.40;20.00
21358;PMS7003;13506;50.852;20.632;2024-03-02T06:07:52;32.60;25.80;14.80
21358;PMS7003;13506;50.852;20.632;2024-03-02T06:10:20;38.40;33.00;18.20
21358;PMS7003;13506;50.852;20.632;2024-03-02T06:12:48;40.00;32.20;16.20
21358;PMS7003;13506;50.852;20.632;2024-03-02T06:15:16;35.60;27.60;15.60
21358;PMS7003;13506;50.852;20.632;2024-03-02T06:17:44;43.00;35.40;18.60
21358;PMS7003;13506;50.852;20.632;2024-03-02T06:20:13;31.80;26.00;13.20
21358;PMS7003;13506;50.852;20.632;2024-03-02T06:22:42;31.40;24.80;15.20
21358;PMS7003;13506;50.852;20.632;2024-03-02T06:25:11;35.80;32.40;18.00
21358;PMS7003;13506;50.852;20.632;2024-03-02T06:27:39;38.20;34.60;19.00
21358;PMS7003;13506;50.852;20.632;2024-03-02T06:30:07;33.40;26.80;16.20
21358;PMS7003;13506;50.852;20.632;2024-03-02T06:32:36;31.00;26.80;15.40
21358;PMS7003;13506;50.852;20.632;2024-03-02T06:35:05;39.40;32.80;19.00
21358;PMS7003;13506;50.852;20.632;2024-03-02T06:37:35;42.20;30.20;16.60
21358;PMS7003;13506;50.852;20.632;2024-03-02T06:40:07;43.00;30.20;17.00
21358;PMS7003;13506;50.852;20.632;2024-03-02T06:42:35;40.00;35.20;17.40
21358;PMS7003;13506;50.852;20.632;2024-03-02T06:45:04;27.20;25.40;14.80
21358;PMS7003;13506;50.852;20.632;2024-03-02T06:47:33;33.60;26.60;14.00
21358;PMS7003;13506;50.852;20.632;2024-03-02T06:50:01;31.00;28.00;16.60
21358;PMS7003;13506;50.852;20.632;2024-03-02T06:52:29;38.80;34.20;16.80
21358;PMS7003;13506;50.852;20.632;2024-03-02T06:54:58;34.80;30.80;16.80
21358;PMS7003;13506;50.852;20.632;2024-03-02T06:57:27;36.00;28.40;17.20
21358;PMS7003;13506;50.852;20.632;2024-03-02T06:59:56;32.20;24.40;13.20
21358;PMS7003;13506;50.852;20.632;2024-03-02T07:02:24;35.60;28.40;15.20
21358;PMS7003;13506;50.852;20.632;2024-03-02T07:04:52;27.40;23.00;13.20
21358;PMS7003;13506;50.852;20.632;2024-03-02T07:07:21;30.20;25.00;16.60
21358;PMS7003;13506;50.852;20.632;2024-03-02T07:09:49;33.20;28.40;15.40
21358;PMS7003;13506;50.852;20.632;2024-03-02T07:12:17;28.00;24.20;14.40
21358;PMS7003;13506;50.852;20.632;2024-03-02T07:14:47;35.80;30.00;18.00
21358;PMS7003;13506;50.852;20.632;2024-03-02T07:17:37;33.00;28.60;15.20
21358;PMS7003;13506;50.852;20.632;2024-03-02T07:20:05;26.80;23.60;13.00
21358;PMS7003;13506;50.852;20.632;2024-03-02T07:22:34;29.20;25.40;13.00
21358;PMS7003;13506;50.852;20.632;2024-03-02T07:25:05;36.20;31.60;16.40
21358;PMS7003;13506;50.852;20.632;2024-03-02T07:27:34;32.40;27.40;14.80
21358;PMS7003;13506;50.852;20.632;2024-03-02T07:30:04;32.80;27.20;17.00
21358;PMS7003;13506;50.852;20.632;2024-03-02T07:32:33;38.60;29.20;17.40
21358;PMS7003;13506;50.852;20.632;2024-03-02T07:35:01;38.60;35.40;20.80
21358;PMS7003;13506;50.852;20.632;2024-03-02T07:37:29;40.20;36.60;20.80
21358;PMS7003;13506;50.852;20.632;2024-03-02T07:39:58;41.80;34.20;19.20
21358;PMS7003;13506;50.852;20.632;2024-03-02T07:42:26;35.60;27.20;16.60
21358;PMS7003;13506;50.852;20.632;2024-03-02T07:44:55;40.40;33.60;17.20
21358;PMS7003;13506;50.852;20.632;2024-03-02T07:47:24;33.80;25.60;14.40
21358;PMS7003;13506;50.852;20.632;2024-03-02T07:49:52;36.80;29.00;17.00
21358;PMS7003;13506;50.852;20.632;2024-03-02T07:52:21;34.20;28.00;15.00
21358;PMS7003;13506;50.852;20.632;2024-03-02T07:54:49;40.00;32.60;17.00
21358;PMS7003;13506;50.852;20.632;2024-03-02T07:57:17;31.80;27.80;16.60
21358;PMS7003;13506;50.852;20.632;2024-03-02T07:59:46;38.60;32.40;19.80
21358;PMS7003;13506;50.852;20.632;2024-03-02T08:02:14;37.20;30.00;17.00
21358;PMS7003;13506;50.852;20.632;2024-03-02T08:04:45;40.80;32.80;18.80
21358;PMS7003;13506;50.852;20.632;2024-03-02T08:07:14;35.00;31.80;17.80
21358;PMS7003;13506;50.852;20.632;2024-03-02T08:09:42;37.60;30.20;16.20
21358;PMS7003;13506;50.852;20.632;2024-03-02T08:12:11;34.60;30.80;17.00
21358;PMS7003;13506;50.852;20.632;2024-03-02T08:14:39;40.60;35.80;18.60
21358;PMS7003;13506;50.852;20.632;2024-03-02T08:17:07;37.20;30.80;18.60
21358;PMS7003;13506;50.852;20.632;2024-03-02T08:19:37;39.00;35.40;19.00
21358;PMS7003;13506;50.852;20.632;2024-03-02T08:22:07;35.60;30.40;18.60
21358;PMS7003;13506;50.852;20.632;2024-03-02T08:24:35;33.00;31.60;17.60
21358;PMS7003;13506;50.852;20.632;2024-03-02T08:27:04;40.20;32.20;15.00
21358;PMS7003;13506;50.852;20.632;2024-03-02T08:29:32;42.40;37.40;20.60
21358;PMS7003;13506;50.852;20.632;2024-03-02T08:32:00;33.00;27.80;16.20
21358;PMS7003;13506;50.852;20.632;2024-03-02T08:34:29;32.40;29.60;15.20
21358;PMS7003;13506;50.852;20.632;2024-03-02T08:36:57;38.60;33.60;18.60
21358;PMS7003;13506;50.852;20.632;2024-03-02T08:39:27;37.20;30.00;18.40
21358;PMS7003;13506;50.852;20.632;2024-03-02T08:41:56;39.00;30.40;17.00
21358;PMS7003;13506;50.852;20.632;2024-03-02T08:44:26;32.40;26.20;18.00
21358;PMS7003;13506;50.852;20.632;2024-03-02T08:46:54;40.40;32.80;18.60
21358;PMS7003;13506;50.852;20.632;2024-03-02T08:49:22;37.80;32.00;19.00
21358;PMS7003;13506;50.852;20.632;2024-03-02T08:51:50;37.60;31.20;18.40
21358;PMS7003;13506;50.852;20.632;2024-03-02T08:54:20;36.60;33.60;19.40
21358;PMS7003;13506;50.852;20.632;2024-03-02T08:56:50;43.60;34.60;17.40
21358;PMS7003;13506;50.852;20.632;2024-03-02T08:59:18;40.40;33.40;18.20
21358;PMS7003;13506;50.852;20.632;2024-03-02T09:01:46;41.80;35.20;20.80
21358;PMS7003;13506;50.852;20.632;2024-03-02T09:04:14;41.80;33.20;18.60
21358;PMS7003;13506;50.852;20.632;2024-03-02T09:06:43;39.00;33.60;18.60
21358;PMS7003;13506;50.852;20.632;2024-03-02T09:09:11;42.40;39.00;22.20
21358;PMS7003;13506;50.852;20.632;2024-03-02T09:11:39;43.80;37.00;21.40
21358;PMS7003;13506;50.852;20.632;2024-03-02T09:14:09;42.00;33.40;18.20
21358;PMS7003;13506;50.852;20.632;2024-03-02T09:16:37;37.40;32.40;19.20
21358;PMS7003;13506;50.852;20.632;2024-03-02T09:19:06;48.60;39.40;21.60
21358;PMS7003;13506;50.852;20.632;2024-03-02T09:21:35;41.80;33.80;19.00
21358;PMS7003;13506;50.852;20.632;2024-03-02T09:24:03;37.60;37.20;20.00
21358;PMS7003;13506;50.852;20.632;2024-03-02T09:26:32;47.80;36.80;21.60
21358;PMS7003;13506;50.852;20.632;2024-03-02T09:29:00;43.80;34.20;20.80
21358;PMS7003;13506;50.852;20.632;2024-03-02T09:31:30;42.80;40.20;22.80
21358;PMS7003;13506;50.852;20.632;2024-03-02T09:33:58;41.80;38.20;20.40
21358;PMS7003;13506;50.852;20.632;2024-03-02T09:36:26;41.80;36.80;21.60
21358;PMS7003;13506;50.852;20.632;2024-03-02T09:38:55;55.60;44.40;24.80
21358;PMS7003;13506;50.852;20.632;2024-03-02T09:41:23;37.40;36.40;23.20
21358;PMS7003;13506;50.852;20.632;2024-03-02T09:43:52;50.20;38.80;23.80
21358;PMS7003;13506;50.852;20.632;2024-03-02T09:46:21;42.00;34.20;19.00
21358;PMS7003;13506;50.852;20.632;2024-03-02T09:48:51;46.40;38.60;22.40
21358;PMS7003;13506;50.852;20.632;2024-03-02T09:51:23;44.60;41.00;23.20
21358;PMS7003;13506;50.852;20.632;2024-03-02T09:53:51;43.25;40.50;24.75
21358;PMS7003;13506;50.852;20.632;2024-03-02T09:56:20;43.40;39.00;21.20
21358;PMS7003;13506;50.852;20.632;2024-03-02T09:58:49;38.40;33.60;17.60
21358;PMS7003;13506;50.852;20.632;2024-03-02T10:01:18;40.60;35.20;21.00
21358;PMS7003;13506;50.852;20.632;2024-03-02T10:03:46;42.80;34.00;21.00
21358;PMS7003;13506;50.852;20.632;2024-03-02T10:06:21;44.60;39.20;20.60
21358;PMS7003;13506;50.852;20.632;2024-03-02T10:08:50;43.80;37.80;22.40
21358;PMS7003;13506;50.852;20.632;2024-03-02T10:11:25;41.60;35.20;23.00
21358;PMS7003;13506;50.852;20.632;2024-03-02T10:14:03;40.80;32.60;20.00
21358;PMS7003;13506;50.852;20.632;2024-03-02T10:16:34;40.80;36.60;21.40
21358;PMS7003;13506;50.852;20.632;2024-03-02T10:19:16;39.20;33.60;20.40
21358;PMS7003;13506;50.852;20.632;2024-03-02T10:21:46;46.20;37.20;23.00
21358;PMS7003;13506;50.852;20.632;2024-03-02T10:24:16;42.00;35.40;20.20
21358;PMS7003;13506;50.852;20.632;2024-03-02T10:26:44;41.60;38.80;22.20
21358;PMS7003;13506;50.852;20.632;2024-03-02T10:29:13;43.40;36.60;21.00
21358;PMS7003;13506;50.852;20.632;2024-03-02T10:31:41;42.20;35.00;22.20
21358;PMS7003;13506;50.852;20.632;2024-03-02T10:34:12;46.60;38.40;20.60
21358;PMS7003;13506;50.852;20.632;2024-03-02T10:36:42;36.40;33.20;20.80
21358;PMS7003;13506;50.852;20.632;2024-03-02T10:39:13;53.00;42.00;24.60
21358;PMS7003;13506;50.852;20.632;2024-03-02T10:41:42;40.80;38.80;19.60
21358;PMS7003;13506;50.852;20.632;2024-03-02T10:44:12;41.20;35.00;21.20
21358;PMS7003;13506;50.852;20.632;2024-03-02T10:46:41;43.40;35.00;18.00
21358;PMS7003;13506;50.852;20.632;2024-03-02T10:49:12;52.00;41.60;21.20
21358;PMS7003;13506;50.852;20.632;2024-03-02T10:51:40;44.00;38.40;21.40
21358;PMS7003;13506;50.852;20.632;2024-03-02T10:54:09;40.80;33.60;21.20
21358;PMS7003;13506;50.852;20.632;2024-03-02T10:56:43;50.40;38.80;24.20
21358;PMS7003;13506;50.852;20.632;2024-03-02T10:59:16;57.80;42.00;24.20
21358;PMS7003;13506;50.852;20.632;2024-03-02T11:01:48;58.00;43.40;24.40
21358;PMS7003;13506;50.852;20.632;2024-03-02T11:04:20;44.80;37.00;25.40
21358;PMS7003;13506;50.852;20.632;2024-03-02T11:06:51;45.40;37.60;22.80
21358;PMS7003;13506;50.852;20.632;2024-03-02T11:09:22;39.80;35.20;21.80
21358;PMS7003;13506;50.852;20.632;2024-03-02T11:11:56;59.20;44.20;27.00
21358;PMS7003;13506;50.852;20.632;2024-03-02T11:14:31;54.80;45.00;27.60
21358;PMS7003;13506;50.852;20.632;2024-03-02T11:17:07;49.00;43.00;27.60
21358;PMS7003;13506;50.852;20.632;2024-03-02T11:19:51;48.20;43.20;27.00
21358;PMS7003;13506;50.852;20.632;2024-03-02T11:22:33;42.80;38.20;20.60
21358;PMS7003;13506;50.852;20.632;2024-03-02T11:25:06;56.20;43.40;28.60
21358;PMS7003;13506;50.852;20.632;2024-03-02T11:28:05;53.80;39.60;22.80
21358;PMS7003;13506;50.852;20.632;2024-03-02T11:30:51;48.20;41.20;23.40
21358;PMS7003;13506;50.852;20.632;2024-03-02T11:33:23;48.80;43.80;25.80
21358;PMS7003;13506;50.852;20.632;2024-03-02T11:35:58;49.40;43.20;26.00
21358;PMS7003;13506;50.852;20.632;2024-03-02T11:38:30;54.20;45.80;27.00
21358;PMS7003;13506;50.852;20.632;2024-03-02T11:41:00;56.20;45.00;27.00
21358;PMS7003;13506;50.852;20.632;2024-03-02T11:43:30;44.00;40.80;23.60
21358;PMS7003;13506;50.852;20.632;2024-03-02T11:45:59;50.60;41.20;22.60
21358;PMS7003;13506;50.852;20.632;2024-03-02T11:48:29;55.00;46.00;26.80
21358;PMS7003;13506;50.852;20.632;2024-03-02T11:50:59;46.20;41.80;25.00
21358;PMS7003;13506;50.852;20.632;2024-03-02T11:53:28;45.20;41.00;25.60
21358;PMS7003;13506;50.852;20.632;2024-03-02T11:55:58;47.40;41.60;23.40
21358;PMS7003;13506;50.852;20.632;2024-03-02T11:58:29;53.20;42.60;25.60
21358;PMS7003;13506;50.852;20.632;2024-03-02T12:00:59;49.20;40.20;25.20
21358;PMS7003;13506;50.852;20.632;2024-03-02T12:03:28;50.00;42.40;23.40
21358;PMS7003;13506;50.852;20.632;2024-03-02T12:05:58;49.80;41.00;23.60
21358;PMS7003;13506;50.852;20.632;2024-03-02T12:08:27;45.80;38.80;22.00
21358;PMS7003;13506;50.852;20.632;2024-03-02T12:10:56;49.60;42.80;24.40
21358;PMS7003;13506;50.852;20.632;2024-03-02T12:13:25;53.60;40.20;24.40
21358;PMS7003;13506;50.852;20.632;2024-03-02T12:15:55;48.60;41.00;25.20
21358;PMS7003;13506;50.852;20.632;2024-03-02T12:18:23;43.00;37.40;24.20
21358;PMS7003;13506;50.852;20.632;2024-03-02T12:20:52;55.75;47.75;29.75
21358;PMS7003;13506;50.852;20.632;2024-03-02T12:23:23;53.00;42.00;24.00
21358;PMS7003;13506;50.852;20.632;2024-03-02T12:25:51;50.20;42.60;26.00
21358;PMS7003;13506;50.852;20.632;2024-03-02T12:28:20;55.80;42.00;23.00
21358;PMS7003;13506;50.852;20.632;2024-03-02T12:30:48;52.80;41.00;23.60
21358;PMS7003;13506;50.852;20.632;2024-03-02T12:33:18;45.40;37.20;20.00
21358;PMS7003;13506;50.852;20.632;2024-03-02T12:35:48;53.00;41.60;26.00
21358;PMS7003;13506;50.852;20.632;2024-03-02T12:38:16;44.60;40.00;25.40
21358;PMS7003;13506;50.852;20.632;2024-03-02T12:40:47;41.20;38.60;23.00
21358;PMS7003;13506;50.852;20.632;2024-03-02T12:43:16;44.00;34.60;21.80
21358;PMS7003;13506;50.852;20.632;2024-03-02T12:45:44;43.40;37.40;23.00
21358;PMS7003;13506;50.852;20.632;2024-03-02T12:48:13;44.40;39.40;22.00
21358;PMS7003;13506;50.852;20.632;2024-03-02T12:50:43;46.40;40.60;24.20
21358;PMS7003;13506;50.852;20.632;2024-03-02T12:53:14;47.40;41.40;23.60
21358;PMS7003;13506;50.852;20.632;2024-03-02T12:55:42;54.40;44.80;29.80
21358;PMS7003;13506;50.852;20.632;2024-03-02T12:58:16;54.80;44.40;27.00
21358;PMS7003;13506;50.852;20.632;2024-03-02T13:00:45;49.20;38.00;22.40
21358;PMS7003;13506;50.852;20.632;2024-03-02T13:03:14;53.40;40.40;24.60
21358;PMS7003;13506;50.852;20.632;2024-03-02T13:05:49;45.60;39.40;25.60
21358;PMS7003;13506;50.852;20.632;2024-03-02T13:08:19;47.20;37.40;23.20
21358;PMS7003;13506;50.852;20.632;2024-03-02T13:10:47;48.00;40.60;24.00
21358;PMS7003;13506;50.852;20.632;2024-03-02T13:13:15;44.60;41.40;27.00
21358;PMS7003;13506;50.852;20.632;2024-03-02T13:15:44;52.80;43.60;27.00
21358;PMS7003;13506;50.852;20.632;2024-03-02T13:18:12;53.00;42.60;26.40
21358;PMS7003;13506;50.852;20.632;2024-03-02T13:20:40;48.40;37.40;22.00
21358;PMS7003;13506;50.852;20.632;2024-03-02T13:23:10;55.80;43.80;26.40
21358;PMS7003;13506;50.852;20.632;2024-03-02T13:25:38;50.80;42.20;26.80
21358;PMS7003;13506;50.852;20.632;2024-03-02T13:28:06;51.20;44.80;27.40
21358;PMS7003;13506;50.852;20.632;2024-03-02T13:30:35;48.00;42.40;25.20
21358;PMS7003;13506;50.852;20.632;2024-03-02T13:33:04;46.50;40.75;25.50
21358;PMS7003;13506;50.852;20.632;2024-03-02T13:35:32;43.80;40.60;24.60
21358;PMS7003;13506;50.852;20.632;2024-03-02T13:38:01;46.60;40.60;25.20
21358;PMS7003;13506;50.852;20.632;2024-03-02T13:40:30;54.60;40.20;25.40
21358;PMS7003;13506;50.852;20.632;2024-03-02T13:43:01;55.20;44.20;27.80
21358;PMS7003;13506;50.852;20.632;2024-03-02T13:45:30;50.60;42.60;25.40
21358;PMS7003;13506;50.852;20.632;2024-03-02T13:47:58;49.60;38.00;24.60
21358;PMS7003;13506;50.852;20.632;2024-03-02T13:50:29;60.60;45.00;28.00